• Join FlightAware (Why Join?)
  • Login
  • US Flag 
04:59PM EDT


 

Airport Tracker/Info


-or-


 

Live Flight TrackerFlight Track Log ✈ GJS3710 ✈ 15-Jun-2013 ✈ KORD - KALB

Flight Track Log - Related Links

Times and Time Zones

All times are in EDT time to prevent confusion due to time zone crossing. See the GJS3710 flight status page for this flight to view local times or setup timezone preferences in your user account.

Time Position Orientation Groundspeed Altitude Reporting Facility
EDT Latitude Longitude Course Direction KTS MPH feet Rate Location/Type
07:55PM 41.9333 -87.8667 83° East 191 220 2,500  Level Chicago TRACON
07:56PM 41.9481 -87.8072 72° East 223 257 4,100 1,260 Climbing Chicago Center
07:57PM 41.9653 -87.7119 76° East 251 289 5,100 1,740 Climbing Chicago Center
07:58PM 42.2033 -87.2401 66° East  Level FlightAware Approximate
07:58PM 41.9844 -87.6061 76° East 285 328 7,700  Level Chicago Center
07:59PM 42.2487 -87.1038 66° East  Level FlightAware Approximate
07:59PM 42.0067 -87.4764 77° East 298 343 10,400  Level Chicago Center
08:00PM 42.2633 -86.9517 83° East  Level Estimated
08:00PM 42.0197 -87.3558 82° East 322 371 12,900  Level Chicago Center
08:01PM 42.0397 -87.2317 78° East 339 390 14,200 1,320 Climbing Chicago Center
08:02PM 42.0536 -87.0861 83° East 389 448 15,700 1,560 Climbing Chicago Center
08:03PM 42.0683 -86.9369 82° East 402 463 17,500 1,740 Climbing Chicago Center
08:04PM 42.0842 -86.7833 82° East 413 475 19,300 1,800 Climbing Chicago Center
08:05PM 42.0992 -86.6172 83° East 420 483 21,200 1,560 Climbing Chicago Center
08:06PM 42.1144 -86.4572 83° East 429 494 22,500 1,200 Climbing Chicago Center
08:07PM 42.1292 -86.2911 83° East 443 510 23,700 1,020 Climbing Chicago Center
08:08PM 42.1469 -86.1186 82° East 460 529 24,700 1,020 Climbing Chicago Center
08:09PM 42.1644 -85.9208 83° East 474 545 25,900 1,080 Climbing Chicago Center
08:10PM 42.1808 -85.7422 83° East 483 556 27,000 1,020 Climbing Chicago Center
08:11PM 42.1967 -85.5617 83° East 488 562 28,100 1,020 Climbing Chicago Center
08:12PM 42.2117 -85.3778 84° East 495 570 29,200 1,140 Climbing Chicago Center
08:13PM 42.2322 -85.1553 83° East 504 580 30,500 1,080 Climbing Chicago Center
08:14PM 42.2469 -84.9706 84° East 501 577 31,500 960 Climbing Chicago Center
08:15PM 42.2625 -84.7856 83° East 499 574 32,500 960 Climbing Chicago Center
08:16PM 42.2769 -84.5989 84° East 502 578 33,500 960 Climbing Chicago Center
08:17PM 42.2956 -84.4144 82° East 499 574 34,500 960 Climbing Chicago Center
08:17PM 42.3000 -84.3678 83° East 496 571 34,800 1,020 Climbing Cleveland Center
08:18PM 42.3264 -84.1894 79° East 491 565 35,800 960 Climbing Cleveland Center
08:19PM 42.3508 -84.0083 80° East 486 559 36,800 780 Climbing Cleveland Center
08:20PM 42.3767 -83.8325 79° East 486 559 37,400 540 Climbing Cleveland Center
08:21PM 42.4050 -83.6372 79° East 481 554 37,900 480 Climbing Cleveland Center
08:22PM 42.4094 -83.4686 88° East 481 554 38,400 480 Climbing Cleveland Center
08:23PM 42.4181 -83.2889 86° East 482 555 38,900 300 Climbing Cleveland Center
08:24PM 42.4267 -83.0811 87° East 487 560 39,000  Climbing Cleveland Center
08:25PM 42.4306 -82.8956 88° East 487 560 39,000  Level Cleveland Center
08:26PM 42.4364 -82.7044 88° East 493 567 39,000  Level Cleveland Center
08:27PM 42.4419 -82.5133 88° East 493 567 39,000  Level Cleveland Center
08:28PM 42.4492 -82.3222 87° East 498 573 39,000  Level Cleveland Center
08:29PM 42.4539 -82.1281 88° East 498 573 39,000  Level Cleveland Center
08:30PM 42.4586 -81.9339 88° East 498 573 39,000  Level Cleveland Center
08:31PM 42.4628 -81.7456 88° East 506 582 39,000  Level Cleveland Center
08:32PM 42.4686 -81.5683 87° East 513 590 39,000  Level Cleveland Center
08:33PM 42.4700 -81.3797 89° East 508 585 39,000  Level Cleveland Center
08:34PM 42.4753 -81.1939 88° East 498 573 39,000  Level Cleveland Center
08:35PM 42.4781 -81.0083 89° East 488 562 39,000  Level Cleveland Center
08:36PM 42.4808 -80.8225 89° East 488 562 39,000  Level Cleveland Center
08:37PM 42.4831 -80.6422 89° East 488 562 39,000  Level Cleveland Center
08:38PM 42.4872 -80.4425 88° East 483 556 39,000  Level Cleveland Center
08:39PM 42.4889 -80.2594 89° East 478 550 39,000  Level Cleveland Center
08:40PM 42.4883 -80.0764 90° East 478 550 39,000  Level Cleveland Center
08:41PM 42.4917 -79.9158 88° East 478 550 39,000  Level Cleveland Center
08:42PM 42.4906 -79.7328 90° East 478 550 39,000  Level Cleveland Center
08:43PM 42.4911 -79.5556 90° East 478 550 39,000  Level Cleveland Center
08:44PM 42.4936 -79.3753 89° East 478 550 39,000  Level Cleveland Center
08:45PM 42.4978 -79.1978 88° East 478 550 39,000  Level Cleveland Center
08:46PM 42.5100 -79.0172 85° East 478 550 39,000  Level Cleveland Center
08:47PM 42.5219 -78.8367 85° East 478 550 39,000  Level Cleveland Center
08:48PM 42.5339 -78.6586 85° East 478 550 39,000  Level Cleveland Center
08:49PM 42.5453 -78.4808 85° East 478 550 39,000 -120 Level Cleveland Center
08:50PM 42.5564 -78.3028 85° East 478 550 38,800 -600 Descending Cleveland Center
08:51PM 42.5675 -78.1278 85° East 478 550 37,800 -1,020 Descending Cleveland Center
08:52PM 42.5781 -77.9467 85° East 478 550 36,800 -1,080 Descending Cleveland Center
08:53PM 42.5942 -77.7400 84° East 484 557 35,700 -1,020 Descending Cleveland Center
08:55PM 42.6078 -77.4286 86° East 509 586 34,100 -960 Descending Boston Center
08:56PM 42.6175 -77.2486 86° East 504 580 33,100 -1,020 Descending Boston Center
08:57PM 42.6275 -77.0575 86° East 498 573 32,100 -1,020 Descending Boston Center
08:58PM 42.6372 -76.8661 86° East 498 573 31,100 -1,020 Descending Boston Center
08:59PM 42.6486 -76.6750 85° East 498 573 30,100 -1,020 Descending Boston Center
09:00PM 42.6558 -76.4778 87° East 503 579 29,100 -600 Descending Boston Center
09:01PM 42.6644 -76.2919 86° East 503 579 29,000 -660 Descending Boston Center
09:02PM 42.6733 -76.0889 87° East 491 565 27,800 -1,680 Descending Boston Center
09:03PM 42.6808 -75.9086 87° East 485 558 25,700 -2,100 Descending Boston Center
09:04PM 42.6881 -75.7367 87° East 473 544 23,700 -1,980 Descending Boston Center
09:05PM 42.6950 -75.5675 87° East 460 529 21,800 -1,920 Descending Boston Center
09:06PM 42.7014 -75.4067 87° East 449 517 19,900 -1,800 Descending Boston Center
09:07PM 42.7078 -75.2431 87° East 437 503 18,200 -1,680 Descending Boston Center
09:08PM 42.7114 -75.0822 88° East 425 489 16,600 -1,680 Descending Boston Center
09:09PM 42.7169 -74.9328 87° East 413 475 14,900 -1,740 Descending Boston Center
09:10PM 42.7222 -74.7886 87° East 400 460 13,200 -1,860 Descending Boston Center
09:10PM 42.7231 -74.7492 88° East 370 426 12,600 -1,500 Descending Boston Center
09:11PM 42.7247 -74.6617 88° East 379 436 11,700 -1,380 Descending Boston Center
09:11PM 42.7361 -74.6139 72° East 367 422 11,200 -600 Descending Boston Center
09:12PM 42.7669 -74.5272 64° Northeast 349 402 11,100 -300 Descending Boston Center
09:12PM 42.7842 -74.4967 52° Northeast 348 400 10,900 -900 Descending Boston Center
09:13PM 42.8081 -74.4325 63° Northeast 329 379 10,200 -1,200 Descending Boston Center
09:13PM 42.8233 -74.3933 62° Northeast 305 351 9,700 -1,620 Descending Boston Center
09:14PM 42.8497 -74.3206 64° Northeast 298 343 8,600 -1,740 Descending Boston Center
09:14PM 42.8625 -74.2983 52° Northeast 285 328 8,000 -1,620 Descending Boston Center
09:15PM 42.8844 -74.2367 64° Northeast 285 328 7,000 -1,620 Descending Boston Center
09:15PM 42.8892 -74.1942 81° East 288 331 6,400 -1,620 Descending Boston Center
09:16PM 42.8903 -74.1150 89° East 280 322 5,400 -1,500 Descending Boston Center
09:16PM 42.8908 -74.0836 89° East 295 339 4,900 -1,020 Descending Boston Center
09:17PM 42.8917 -74.0186 89° East 280 322 4,400 -900 Descending Boston Center
09:17PM 42.8944 -73.9675 86° East 286 329 4,000 -720 Descending Boston Center
09:18PM 42.8975 -73.9025 86° East 280 322 3,700 -720 Descending Boston Center
09:19PM 42.9000 -73.8631 85° East 270 311 3,300 -720 Descending Boston Center
09:19PM 42.8986 -73.8061 92° East 258 297 3,000 -300 Descending Boston Center
09:20PM 42.9011 -73.7722 84° East 233 268 3,000 -120 Level Boston Center
09:20PM 42.8994 -73.7269 93° East 235 270 2,900 -420 Descending Boston Center
09:21PM 42.8936 -73.6928 103° East 217 250 2,600 -300 Descending Boston Center
09:21PM 42.8564 -73.6750 161° South 183 211 2,600 -120 Level Boston Center
09:22PM 42.8378 -73.6717 173° South 204 235 2,500 -240 Descending Boston Center
09:22PM 42.8064 -73.6711 179° South 193 222 2,400 -180 Descending Boston Center